createdAt,value
2017-05-31T00:00:30.835Z,22.17
2017-05-31T00:01:31.541Z,22.17
2017-05-31T00:02:32.495Z,22.13
2017-05-31T00:03:33.216Z,22.06
2017-05-31T00:04:33.926Z,22.11
2017-05-31T00:05:34.628Z,22.13
2017-05-31T00:06:35.333Z,22.17
2017-05-31T00:07:36.285Z,22.11
2017-05-31T00:08:36.989Z,22.06
2017-05-31T00:09:37.693Z,22.15
2017-05-31T00:10:38.398Z,22.18
2017-05-31T00:11:39.103Z,22.18
2017-05-31T00:12:40.061Z,22.17
2017-05-31T00:13:40.764Z,22.10
2017-05-31T00:14:41.475Z,22.07
2017-05-31T00:15:42.179Z,21.95
2017-05-31T00:16:42.880Z,21.93
2017-05-31T00:17:43.830Z,21.99
2017-05-31T00:18:44.532Z,21.99
2017-05-31T00:19:45.234Z,21.99
2017-05-31T00:20:45.936Z,21.98
2017-05-31T00:21:46.639Z,21.98
2017-05-31T00:22:47.589Z,21.92
2017-05-31T00:23:48.291Z,21.77
2017-05-31T00:24:48.995Z,21.82
2017-05-31T00:25:49.697Z,21.67
2017-05-31T00:26:50.402Z,21.54
2017-05-31T00:27:51.359Z,21.55
2017-05-31T00:28:52.063Z,21.62
2017-05-31T00:29:52.765Z,21.64
2017-05-31T00:30:53.469Z,21.60
2017-05-31T00:31:54.178Z,21.58
2017-05-31T00:32:55.133Z,21.58
2017-05-31T00:33:55.838Z,21.64
2017-05-31T00:34:56.543Z,21.64
2017-05-31T00:35:57.258Z,21.60
2017-05-31T00:36:57.966Z,21.52
2017-05-31T00:37:58.866Z,21.55
2017-05-31T00:38:59.569Z,21.57
2017-05-31T00:40:00.271Z,21.54
2017-05-31T00:41:00.973Z,21.36
2017-05-31T00:42:01.680Z,21.48
2017-05-31T00:43:02.644Z,21.40
2017-05-31T00:44:03.344Z,21.51
2017-05-31T00:45:04.046Z,21.55
2017-05-31T00:46:04.753Z,21.60
2017-05-31T00:47:05.456Z,21.61
2017-05-31T00:48:06.408Z,21.54
2017-05-31T00:49:07.113Z,21.51
2017-05-31T00:50:07.816Z,21.54
2017-05-31T00:51:08.516Z,21.54
2017-05-31T00:52:09.224Z,21.62
2017-05-31T00:53:10.124Z,21.51
2017-05-31T00:54:10.827Z,21.58
2017-05-31T00:55:11.527Z,21.54
2017-05-31T00:56:12.232Z,21.52
2017-05-31T00:57:12.933Z,21.50
2017-05-31T00:58:13.886Z,21.43
2017-05-31T00:59:14.598Z,21.45
2017-05-31T01:00:15.300Z,21.40
2017-05-31T01:01:16.002Z,21.33
2017-05-31T01:02:16.705Z,21.30
2017-05-31T01:03:17.408Z,21.37
2017-05-31T01:04:18.109Z,21.29
2017-05-31T01:05:18.810Z,21.37
2017-05-31T01:06:19.512Z,21.42
2017-05-31T01:07:20.213Z,21.37
2017-05-31T01:08:21.169Z,21.42
2017-05-31T01:09:21.871Z,21.39
2017-05-31T01:10:22.575Z,21.37
2017-05-31T01:11:23.278Z,21.33
2017-05-31T01:12:23.982Z,21.35
2017-05-31T01:13:24.937Z,21.27
2017-05-31T01:14:25.644Z,21.30
2017-05-31T01:15:26.346Z,21.22
2017-05-31T01:16:27.047Z,21.29
2017-05-31T01:17:27.748Z,21.33
2017-05-31T01:18:28.705Z,21.30
2017-05-31T01:19:29.408Z,21.37
2017-05-31T01:20:30.115Z,21.36
2017-05-31T01:21:30.818Z,21.35
2017-05-31T01:22:31.520Z,21.30
2017-05-31T01:23:32.477Z,21.39
2017-05-31T01:24:33.190Z,21.36
2017-05-31T01:25:33.896Z,21.29
2017-05-31T01:26:34.598Z,21.37
2017-05-31T01:27:35.302Z,21.30
2017-05-31T01:28:36.256Z,21.33
2017-05-31T01:29:36.976Z,21.37
2017-05-31T01:30:37.695Z,21.36
2017-05-31T01:31:38.404Z,21.27
2017-05-31T01:32:39.107Z,21.35
2017-05-31T01:33:40.058Z,21.30
2017-05-31T01:34:40.766Z,21.22
2017-05-31T01:35:41.470Z,21.29
2017-05-31T01:36:42.173Z,21.18
2017-05-31T01:37:42.877Z,21.20
2017-05-31T01:38:43.827Z,21.22
2017-05-31T01:39:44.530Z,21.25
2017-05-31T01:40:45.232Z,21.22
2017-05-31T01:41:45.935Z,21.27
2017-05-31T01:42:46.636Z,21.22
2017-05-31T01:43:47.536Z,21.30
2017-05-31T01:44:48.239Z,21.18
2017-05-31T01:45:48.943Z,21.24
2017-05-31T01:46:49.645Z,21.21
2017-05-31T01:47:50.351Z,21.17
2017-05-31T01:48:51.306Z,21.22
2017-05-31T01:49:52.010Z,21.18
2017-05-31T01:50:52.714Z,21.12
2017-05-31T01:51:53.427Z,21.09
2017-05-31T01:52:54.130Z,21.14
2017-05-31T01:53:55.086Z,21.15
2017-05-31T01:54:55.788Z,21.07
2017-05-31T01:55:56.494Z,21.06
2017-05-31T01:56:57.197Z,21.02
2017-05-31T01:57:57.898Z,21.15
2017-05-31T01:58:58.850Z,21.05
2017-05-31T01:59:59.558Z,21.03
2017-05-31T02:01:00.270Z,21.02
2017-05-31T02:02:00.971Z,21.02
2017-05-31T02:03:01.679Z,21.02
2017-05-31T02:04:02.635Z,21.05
2017-05-31T02:05:03.337Z,20.99
2017-05-31T02:06:04.039Z,20.96
2017-05-31T02:07:04.739Z,20.99
2017-05-31T02:08:05.443Z,21.02
2017-05-31T02:09:06.405Z,20.99
2017-05-31T02:10:07.110Z,20.96
2017-05-31T02:11:07.813Z,20.88
2017-05-31T02:12:08.516Z,20.84
2017-05-31T02:13:09.215Z,20.80
2017-05-31T02:14:10.174Z,20.96
2017-05-31T02:15:10.876Z,20.84
2017-05-31T02:16:11.578Z,20.87
2017-05-31T02:17:12.289Z,20.87
2017-05-31T02:18:12.995Z,20.84
2017-05-31T02:19:13.951Z,20.85
2017-05-31T02:20:14.654Z,20.81
2017-05-31T02:21:15.368Z,20.70
2017-05-31T02:22:16.071Z,20.67
2017-05-31T02:23:18.330Z,20.74
2017-05-31T02:24:18.735Z,20.59
2017-05-31T02:25:19.439Z,20.65
2017-05-31T02:26:20.176Z,20.63
2017-05-31T02:27:20.887Z,20.50
2017-05-31T02:28:21.599Z,20.39
2017-05-31T02:29:22.506Z,20.40
2017-05-31T02:30:23.213Z,20.50
2017-05-31T02:31:23.915Z,20.50
2017-05-31T02:32:24.620Z,20.50
2017-05-31T02:33:25.320Z,20.51
2017-05-31T02:34:26.272Z,20.56
2017-05-31T02:35:26.976Z,20.47
2017-05-31T02:36:27.680Z,20.37
2017-05-31T02:37:28.381Z,20.31
2017-05-31T02:38:29.083Z,20.19
2017-05-31T02:39:30.033Z,20.22
2017-05-31T02:40:30.733Z,20.39
2017-05-31T02:41:31.434Z,20.22
2017-05-31T02:42:32.134Z,20.34
2017-05-31T02:43:32.836Z,20.43
2017-05-31T02:44:33.790Z,20.29
2017-05-31T02:45:34.493Z,20.32
2017-05-31T02:46:35.197Z,20.37
2017-05-31T02:47:35.900Z,20.36
2017-05-31T02:48:36.601Z,20.29
2017-05-31T02:49:37.553Z,20.40
2017-05-31T02:50:38.253Z,20.25
2017-05-31T02:51:38.956Z,20.10
2017-05-31T02:52:39.658Z,20.04
2017-05-31T02:53:40.361Z,20.07
2017-05-31T02:54:41.319Z,20.09
2017-05-31T02:55:42.029Z,20.07
2017-05-31T02:56:42.732Z,20.11
2017-05-31T02:57:43.442Z,20.04
2017-05-31T02:58:44.143Z,20.06
2017-05-31T02:59:45.095Z,20.00
2017-05-31T03:00:45.801Z,20.04
2017-05-31T03:01:46.504Z,19.99
2017-05-31T03:02:47.209Z,20.02
2017-05-31T03:03:47.916Z,19.99
2017-05-31T03:04:48.872Z,20.00
2017-05-31T03:05:49.577Z,20.03
2017-05-31T03:06:50.302Z,20.04
2017-05-31T03:07:51.006Z,20.03
2017-05-31T03:08:51.708Z,20.18
2017-05-31T03:09:52.617Z,20.06
2017-05-31T03:10:53.322Z,20.02
2017-05-31T03:11:54.025Z,20.04
2017-05-31T03:12:54.734Z,20.02
2017-05-31T03:13:55.438Z,20.06
2017-05-31T03:14:56.393Z,20.04
2017-05-31T03:15:57.106Z,20.00
2017-05-31T03:16:57.807Z,19.99
2017-05-31T03:17:58.510Z,20.02
2017-05-31T03:18:59.215Z,19.95
2017-05-31T03:20:00.168Z,19.89
2017-05-31T03:21:00.878Z,19.96
2017-05-31T03:22:01.583Z,19.95
2017-05-31T03:23:02.290Z,19.89
2017-05-31T03:24:02.994Z,19.92
2017-05-31T03:25:03.700Z,19.92
2017-05-31T03:26:04.405Z,20.06
2017-05-31T03:27:05.107Z,19.99
2017-05-31T03:28:05.809Z,19.92
2017-05-31T03:29:06.512Z,19.89
2017-05-31T03:30:07.423Z,19.94
2017-05-31T03:31:08.127Z,19.85
2017-05-31T03:32:08.831Z,19.92
2017-05-31T03:33:09.534Z,19.92
2017-05-31T03:34:10.235Z,19.91
2017-05-31T03:35:11.186Z,19.88
2017-05-31T03:36:11.895Z,19.88
2017-05-31T03:37:12.600Z,19.92
2017-05-31T03:38:13.310Z,19.88
2017-05-31T03:39:14.014Z,19.85
2017-05-31T03:40:14.922Z,19.99
2017-05-31T03:41:15.628Z,19.94
2017-05-31T03:42:16.340Z,19.92
2017-05-31T03:43:17.042Z,20.03
2017-05-31T03:44:17.745Z,20.04
2017-05-31T03:45:18.702Z,20.02
2017-05-31T03:46:19.407Z,20.03
2017-05-31T03:47:20.115Z,20.04
2017-05-31T03:48:20.820Z,19.95
2017-05-31T03:49:21.523Z,19.95
2017-05-31T03:50:22.480Z,20.03
2017-05-31T03:51:23.182Z,20.04
2017-05-31T03:52:23.897Z,20.07
2017-05-31T03:53:24.600Z,20.18
2017-05-31T03:54:25.303Z,20.04
2017-05-31T03:55:26.209Z,20.04
2017-05-31T03:56:26.914Z,20.06
2017-05-31T03:57:27.632Z,20.02
2017-05-31T03:58:28.339Z,20.02
2017-05-31T03:59:29.049Z,20.09
2017-05-31T04:00:30.014Z,20.06
2017-05-31T04:01:30.722Z,20.14
2017-05-31T04:02:31.434Z,20.03
2017-05-31T04:03:32.137Z,20.21
2017-05-31T04:04:32.846Z,20.21
2017-05-31T04:05:33.806Z,20.10
2017-05-31T04:06:34.512Z,20.13
2017-05-31T04:07:35.213Z,20.07
2017-05-31T04:08:35.921Z,20.06
2017-05-31T04:09:36.627Z,20.07
2017-05-31T04:10:37.583Z,20.02
2017-05-31T04:11:38.287Z,20.06
2017-05-31T04:12:38.992Z,19.91
2017-05-31T04:13:39.692Z,19.89
2017-05-31T04:14:40.403Z,19.89
2017-05-31T04:15:41.315Z,19.92
2017-05-31T04:16:42.019Z,19.94
2017-05-31T04:17:42.725Z,20.10
2017-05-31T04:18:43.426Z,20.03
2017-05-31T04:19:44.151Z,20.06
2017-05-31T04:20:45.106Z,20.09
2017-05-31T04:21:45.809Z,20.07
2017-05-31T04:22:46.512Z,20.19
2017-05-31T04:23:47.228Z,20.21
2017-05-31T04:24:47.934Z,20.16
2017-05-31T04:25:48.888Z,20.11
2017-05-31T04:26:49.589Z,20.10
2017-05-31T04:27:50.294Z,20.04
2017-05-31T04:28:50.997Z,20.14
2017-05-31T04:29:51.706Z,20.16
2017-05-31T04:30:52.612Z,20.13
2017-05-31T04:31:53.322Z,20.11
2017-05-31T04:32:54.032Z,20.24
2017-05-31T04:33:54.741Z,20.26
2017-05-31T04:34:55.449Z,20.25
2017-05-31T04:35:56.355Z,20.21
2017-05-31T04:36:57.069Z,20.25
2017-05-31T04:37:57.778Z,20.24
2017-05-31T04:38:58.486Z,20.24
2017-05-31T04:39:59.218Z,20.26
2017-05-31T04:41:00.136Z,20.16
2017-05-31T04:42:00.841Z,20.26
2017-05-31T04:43:01.547Z,20.21
2017-05-31T04:44:02.255Z,20.31
2017-05-31T04:45:02.961Z,20.37
2017-05-31T04:46:03.916Z,20.55
2017-05-31T04:47:04.626Z,20.59
2017-05-31T04:48:05.331Z,20.65
2017-05-31T04:49:06.039Z,20.75
2017-05-31T04:50:06.747Z,20.77
2017-05-31T04:51:07.703Z,20.78
2017-05-31T04:52:08.409Z,20.87
2017-05-31T04:53:09.116Z,20.72
2017-05-31T04:54:09.821Z,20.84
2017-05-31T04:55:10.532Z,20.93
2017-05-31T04:56:11.492Z,20.99
2017-05-31T04:57:12.198Z,20.85
2017-05-31T04:58:12.903Z,20.95
2017-05-31T04:59:13.609Z,20.88
2017-05-31T05:00:14.319Z,20.87
2017-05-31T05:01:15.280Z,20.85
2017-05-31T05:02:15.986Z,20.85
2017-05-31T05:03:16.692Z,20.84
2017-05-31T05:04:17.415Z,20.78
2017-05-31T05:05:18.125Z,20.69
2017-05-31T05:06:19.084Z,20.70
2017-05-31T05:07:19.793Z,20.72
2017-05-31T05:08:20.502Z,20.74
2017-05-31T05:09:21.212Z,20.82
2017-05-31T05:10:21.919Z,20.77
2017-05-31T05:11:22.875Z,20.82
2017-05-31T05:12:23.586Z,20.90
2017-05-31T05:13:24.289Z,20.84
2017-05-31T05:14:24.996Z,20.87
2017-05-31T05:15:25.701Z,20.84
2017-05-31T05:16:26.659Z,20.85
2017-05-31T05:17:27.366Z,20.99
2017-05-31T05:18:28.075Z,21.02
2017-05-31T05:19:28.784Z,20.97
2017-05-31T05:20:29.493Z,20.85
2017-05-31T05:21:30.399Z,20.87
2017-05-31T05:22:31.111Z,20.97
2017-05-31T05:23:31.818Z,20.93
2017-05-31T05:24:32.525Z,20.96
2017-05-31T05:25:33.229Z,20.92
2017-05-31T05:26:34.183Z,20.82
2017-05-31T05:27:34.890Z,20.72
2017-05-31T05:28:35.606Z,20.74
2017-05-31T05:29:36.315Z,20.59
2017-05-31T05:30:37.026Z,20.67
2017-05-31T05:31:37.987Z,20.72
2017-05-31T05:32:38.694Z,20.69
2017-05-31T05:33:39.407Z,20.67
2017-05-31T05:34:40.120Z,20.70
2017-05-31T05:35:40.836Z,20.66
2017-05-31T05:36:41.794Z,20.74
2017-05-31T05:37:42.512Z,20.69
2017-05-31T05:38:43.232Z,20.75
2017-05-31T05:39:43.938Z,20.72
2017-05-31T05:40:44.646Z,20.72
2017-05-31T05:41:45.558Z,20.72
2017-05-31T05:42:46.266Z,20.70
2017-05-31T05:43:46.975Z,20.69
2017-05-31T05:44:47.689Z,20.82
2017-05-31T05:45:48.395Z,20.75
2017-05-31T05:46:49.307Z,20.59
2017-05-31T05:47:50.012Z,20.67
2017-05-31T05:48:50.719Z,20.70
2017-05-31T05:49:51.426Z,20.74
2017-05-31T05:50:52.131Z,20.72
2017-05-31T05:51:52.833Z,20.63
2017-05-31T05:52:53.538Z,20.59
2017-05-31T05:53:54.241Z,20.59
2017-05-31T05:54:54.950Z,20.52
2017-05-31T05:55:55.652Z,20.66
2017-05-31T05:56:56.557Z,20.74
2017-05-31T05:57:57.267Z,20.59
2017-05-31T05:58:57.973Z,20.62
2017-05-31T05:59:58.678Z,20.70
2017-05-31T06:00:59.383Z,20.75
2017-05-31T06:02:00.336Z,20.69
2017-05-31T06:03:01.042Z,20.77
2017-05-31T06:04:01.756Z,20.74
2017-05-31T06:05:02.471Z,20.75
2017-05-31T06:06:03.177Z,20.74
2017-05-31T06:07:04.085Z,20.75
2017-05-31T06:08:04.795Z,20.77
2017-05-31T06:09:05.497Z,20.77
2017-05-31T06:10:06.204Z,20.81
2017-05-31T06:11:06.911Z,20.87
2017-05-31T06:12:07.822Z,20.88
2017-05-31T06:13:08.528Z,20.99
2017-05-31T06:14:09.236Z,21.00
2017-05-31T06:15:09.948Z,21.07
2017-05-31T06:16:10.654Z,21.25
2017-05-31T06:17:11.562Z,21.20
2017-05-31T06:18:12.272Z,21.20
2017-05-31T06:19:12.979Z,21.22
2017-05-31T06:20:13.688Z,21.20
2017-05-31T06:21:14.409Z,21.29
2017-05-31T06:22:15.313Z,21.22
2017-05-31T06:23:16.019Z,21.29
2017-05-31T06:24:16.725Z,21.35
2017-05-31T06:25:17.434Z,21.39
2017-05-31T06:26:18.142Z,21.36
2017-05-31T06:27:19.099Z,21.37
2017-05-31T06:28:19.807Z,21.37
2017-05-31T06:29:20.523Z,21.40
2017-05-31T06:30:21.231Z,21.35
2017-05-31T06:31:21.938Z,21.52
2017-05-31T06:32:22.902Z,21.37
2017-05-31T06:33:23.612Z,21.46
2017-05-31T06:34:24.317Z,21.43
2017-05-31T06:35:25.023Z,21.39
2017-05-31T06:36:25.739Z,21.39
2017-05-31T06:37:26.703Z,21.30
2017-05-31T06:38:27.409Z,21.40
2017-05-31T06:39:28.115Z,21.33
2017-05-31T06:40:28.818Z,21.24
2017-05-31T06:41:29.525Z,21.27
2017-05-31T06:42:30.431Z,21.42
2017-05-31T06:43:31.142Z,21.45
2017-05-31T06:44:31.851Z,21.52
2017-05-31T06:45:32.555Z,21.66
2017-05-31T06:46:33.264Z,21.75
2017-05-31T06:47:34.176Z,21.61
2017-05-31T06:48:34.882Z,21.67
2017-05-31T06:49:35.588Z,21.62
2017-05-31T06:50:36.294Z,21.52
2017-05-31T06:51:37.004Z,21.57
2017-05-31T06:52:37.965Z,21.54
2017-05-31T06:53:38.673Z,21.58
2017-05-31T06:54:39.383Z,21.61
2017-05-31T06:55:40.089Z,21.54
2017-05-31T06:56:40.804Z,21.57
2017-05-31T06:57:41.716Z,21.61
2017-05-31T06:58:42.421Z,21.55
2017-05-31T06:59:43.127Z,21.69
2017-05-31T07:00:43.841Z,21.82
2017-05-31T07:01:44.551Z,21.80
2017-05-31T07:02:45.459Z,21.96
2017-05-31T07:03:46.166Z,21.85
2017-05-31T07:04:46.875Z,21.85
2017-05-31T07:05:47.591Z,21.85
2017-05-31T07:06:48.299Z,21.82
2017-05-31T07:07:49.207Z,21.75
2017-05-31T07:08:49.915Z,21.83
2017-05-31T07:09:50.622Z,21.83
2017-05-31T07:10:51.327Z,21.89
2017-05-31T07:11:52.043Z,21.95
2017-05-31T07:12:53.006Z,22.02
2017-05-31T07:13:53.713Z,22.14
2017-05-31T07:14:54.419Z,22.25
2017-05-31T07:15:55.128Z,22.13
2017-05-31T07:16:55.840Z,22.20
2017-05-31T07:17:56.795Z,22.13
2017-05-31T07:18:57.502Z,22.15
2017-05-31T07:19:58.215Z,22.11
2017-05-31T07:20:58.923Z,22.04
2017-05-31T07:21:59.629Z,22.02
2017-05-31T07:23:00.585Z,21.96
2017-05-31T07:24:01.304Z,22.02
2017-05-31T07:25:02.032Z,21.99
2017-05-31T07:26:02.740Z,22.04
2017-05-31T07:27:03.447Z,22.13
2017-05-31T07:28:04.355Z,22.30
2017-05-31T07:29:05.063Z,22.18
2017-05-31T07:30:05.774Z,22.15
2017-05-31T07:31:06.485Z,22.26
2017-05-31T07:32:07.199Z,22.22
2017-05-31T07:33:08.153Z,22.29
2017-05-31T07:34:08.860Z,22.33
2017-05-31T07:35:09.567Z,22.26
2017-05-31T07:36:10.274Z,22.28
2017-05-31T07:37:10.981Z,22.26
2017-05-31T07:38:11.892Z,22.30
2017-05-31T07:39:12.599Z,22.22
2017-05-31T07:40:13.307Z,22.30
2017-05-31T07:41:14.017Z,22.33
2017-05-31T07:42:14.724Z,22.38
2017-05-31T07:43:15.631Z,22.41
2017-05-31T07:44:16.341Z,22.30
2017-05-31T07:45:17.068Z,22.35
2017-05-31T07:46:17.773Z,22.43
2017-05-31T07:47:18.477Z,22.43
2017-05-31T07:48:19.436Z,22.41
2017-05-31T07:49:20.139Z,22.43
2017-05-31T07:50:20.847Z,22.44
2017-05-31T07:51:21.552Z,22.47
2017-05-31T07:52:22.260Z,22.53
2017-05-31T07:53:23.217Z,22.47
2017-05-31T07:54:23.924Z,22.43
2017-05-31T07:55:24.632Z,22.36
2017-05-31T07:56:25.341Z,22.33
2017-05-31T07:57:26.097Z,22.36
2017-05-31T07:58:27.085Z,22.47
2017-05-31T07:59:27.813Z,22.45
2017-05-31T08:00:28.519Z,22.47
2017-05-31T08:01:29.228Z,22.54
2017-05-31T08:02:29.938Z,22.57
2017-05-31T08:03:30.849Z,22.54
2017-05-31T08:04:31.558Z,22.43
2017-05-31T08:05:32.269Z,22.55
2017-05-31T08:06:32.975Z,22.60
2017-05-31T08:07:33.686Z,22.50
2017-05-31T08:08:34.614Z,22.55
2017-05-31T08:09:35.332Z,22.41
2017-05-31T08:10:36.044Z,22.47
2017-05-31T08:11:36.748Z,22.54
2017-05-31T08:12:37.459Z,22.68
2017-05-31T08:13:38.367Z,22.70
2017-05-31T08:14:39.074Z,22.60
2017-05-31T08:15:39.778Z,22.51
2017-05-31T08:16:40.482Z,22.60
2017-05-31T08:17:41.190Z,22.57
2017-05-31T08:18:41.895Z,22.57
2017-05-31T08:19:42.571Z,22.60
2017-05-31T08:20:43.302Z,22.57
2017-05-31T08:21:44.009Z,22.55
2017-05-31T08:22:44.720Z,22.50
2017-05-31T08:23:45.673Z,22.60
2017-05-31T08:24:46.374Z,22.59
2017-05-31T08:25:47.085Z,22.50
2017-05-31T08:26:47.793Z,22.60
2017-05-31T08:27:48.504Z,22.66
2017-05-31T08:28:49.409Z,22.78
2017-05-31T08:29:50.127Z,22.76
2017-05-31T08:30:50.838Z,22.75
2017-05-31T08:31:51.545Z,22.80
2017-05-31T08:32:52.250Z,22.80
2017-05-31T08:33:53.158Z,22.94
2017-05-31T08:34:53.867Z,22.99
2017-05-31T08:35:54.577Z,23.05
2017-05-31T08:36:55.285Z,22.94
2017-05-31T08:37:55.992Z,22.96
2017-05-31T08:38:56.902Z,22.93
2017-05-31T08:39:57.612Z,22.96
2017-05-31T08:40:58.319Z,23.06
2017-05-31T08:41:59.033Z,23.05
2017-05-31T08:42:59.752Z,23.00
2017-05-31T08:44:00.659Z,23.21
2017-05-31T08:45:01.362Z,23.32
2017-05-31T08:46:02.072Z,23.37
2017-05-31T08:47:02.776Z,23.34
2017-05-31T08:48:03.482Z,23.32
2017-05-31T08:49:04.443Z,23.32
2017-05-31T08:50:05.153Z,23.46
2017-05-31T08:51:05.862Z,23.41
2017-05-31T08:52:06.574Z,23.54
2017-05-31T08:53:07.287Z,23.55
2017-05-31T08:54:08.250Z,23.50
2017-05-31T08:55:08.960Z,23.54
2017-05-31T08:56:09.676Z,23.58
2017-05-31T08:57:10.384Z,23.62
2017-05-31T08:58:11.109Z,23.66
2017-05-31T08:59:12.069Z,23.68
2017-05-31T09:00:12.781Z,23.51
2017-05-31T09:01:13.490Z,23.50
2017-05-31T09:02:14.197Z,23.31
2017-05-31T09:03:14.913Z,23.32
2017-05-31T09:04:15.820Z,23.54
2017-05-31T09:05:16.528Z,23.65
2017-05-31T09:06:17.237Z,23.81
2017-05-31T09:07:17.954Z,23.87
2017-05-31T09:08:18.672Z,24.01
2017-05-31T09:09:19.634Z,24.28
2017-05-31T09:10:20.358Z,24.14
2017-05-31T09:11:21.068Z,24.13
2017-05-31T09:12:21.772Z,24.13
2017-05-31T09:13:22.482Z,24.30
2017-05-31T09:14:23.401Z,24.47
2017-05-31T09:15:24.108Z,24.53
2017-05-31T09:16:24.822Z,24.47
2017-05-31T09:17:25.537Z,24.61
2017-05-31T09:18:26.247Z,24.57
2017-05-31T09:19:27.157Z,24.55
2017-05-31T09:20:27.863Z,24.51
2017-05-31T09:21:28.571Z,24.32
2017-05-31T09:22:29.279Z,24.40
2017-05-31T09:23:29.987Z,24.54
2017-05-31T09:24:30.904Z,24.51
2017-05-31T09:25:31.617Z,24.48
2017-05-31T09:26:32.326Z,24.69
2017-05-31T09:27:33.038Z,24.55
2017-05-31T09:28:33.748Z,24.65
2017-05-31T09:29:34.705Z,24.63
2017-05-31T09:30:35.414Z,24.73
2017-05-31T09:31:36.128Z,24.61
2017-05-31T09:32:36.837Z,24.68
2017-05-31T09:33:37.556Z,24.81
2017-05-31T09:34:38.512Z,24.70
2017-05-31T09:35:39.217Z,24.93
2017-05-31T09:36:39.928Z,25.01
2017-05-31T09:37:40.639Z,25.21
2017-05-31T09:38:41.348Z,25.22
2017-05-31T09:39:42.272Z,25.08
2017-05-31T09:40:42.981Z,24.96
2017-05-31T09:41:43.695Z,24.84
2017-05-31T09:42:44.412Z,24.69
2017-05-31T09:43:45.126Z,24.74
2017-05-31T09:44:46.034Z,24.74
2017-05-31T09:45:46.744Z,24.91
2017-05-31T09:46:47.455Z,25.08
2017-05-31T09:47:48.166Z,25.23
2017-05-31T09:48:48.876Z,25.43
2017-05-31T09:49:49.837Z,25.51
2017-05-31T09:50:50.778Z,25.63
2017-05-31T09:51:51.495Z,25.48
2017-05-31T09:52:52.202Z,25.10
2017-05-31T09:53:52.913Z,25.06
2017-05-31T09:54:53.873Z,25.03
2017-05-31T09:55:54.583Z,25.13
2017-05-31T09:56:55.290Z,25.22
2017-05-31T09:57:56.000Z,25.26
2017-05-31T09:58:56.711Z,25.21
2017-05-31T09:59:57.669Z,25.17
2017-05-31T10:00:58.378Z,25.18
2017-05-31T10:01:59.092Z,25.47
2017-05-31T10:02:59.804Z,25.47
2017-05-31T10:04:00.513Z,25.72
2017-05-31T10:05:01.421Z,25.69
2017-05-31T10:06:02.137Z,25.63
2017-05-31T10:07:02.844Z,25.83
2017-05-31T10:08:03.550Z,25.93
2017-05-31T10:09:04.258Z,25.96
2017-05-31T10:10:05.169Z,26.02
2017-05-31T10:11:05.879Z,26.21
2017-05-31T10:12:06.588Z,26.00
2017-05-31T10:13:07.299Z,26.06
2017-05-31T10:14:08.002Z,25.65
2017-05-31T10:15:08.913Z,25.54
2017-05-31T10:16:09.625Z,25.58
2017-05-31T10:17:10.334Z,25.58
2017-05-31T10:18:11.046Z,25.77
2017-05-31T10:19:11.758Z,25.81
2017-05-31T10:20:12.717Z,25.83
2017-05-31T10:21:13.428Z,25.73
2017-05-31T10:22:14.146Z,25.80
2017-05-31T10:23:14.859Z,25.98
2017-05-31T10:24:15.573Z,25.98
2017-05-31T10:25:16.487Z,25.98
2017-05-31T10:26:17.198Z,26.00
2017-05-31T10:27:17.910Z,26.09
2017-05-31T10:28:18.628Z,25.95
2017-05-31T10:29:19.339Z,25.95
2017-05-31T10:30:20.302Z,25.91
2017-05-31T10:31:21.025Z,25.95
2017-05-31T10:32:21.736Z,26.00
2017-05-31T10:33:22.446Z,26.06
2017-05-31T10:34:23.154Z,26.07
2017-05-31T10:35:24.114Z,26.03
2017-05-31T10:36:24.823Z,26.02
2017-05-31T10:37:25.536Z,25.96
2017-05-31T10:38:26.249Z,25.85
2017-05-31T10:39:26.964Z,26.05
2017-05-31T10:40:27.930Z,26.29
2017-05-31T10:41:28.634Z,26.52
2017-05-31T10:42:29.343Z,26.77
2017-05-31T10:43:30.051Z,26.80
2017-05-31T10:44:30.759Z,26.71
2017-05-31T10:45:31.719Z,26.77
2017-05-31T10:46:32.428Z,26.60
2017-05-31T10:47:33.135Z,26.22
2017-05-31T10:48:33.846Z,26.22
2017-05-31T10:49:34.557Z,26.40
2017-05-31T10:50:35.272Z,26.66
2017-05-31T10:51:35.983Z,26.51
2017-05-31T10:52:36.693Z,26.29
2017-05-31T10:53:37.414Z,26.00
2017-05-31T10:54:38.121Z,25.87
2017-05-31T10:55:39.080Z,26.07
2017-05-31T10:56:39.792Z,26.18
2017-05-31T10:57:40.501Z,26.37
2017-05-31T10:58:41.214Z,26.33
2017-05-31T10:59:41.925Z,26.38
2017-05-31T11:00:42.847Z,26.51
2017-05-31T11:01:43.558Z,26.71
2017-05-31T11:02:44.271Z,26.70
2017-05-31T11:03:44.982Z,26.73
2017-05-31T11:04:45.694Z,26.83
2017-05-31T11:05:46.658Z,26.92
2017-05-31T11:06:47.369Z,26.85
2017-05-31T11:07:48.084Z,26.95
2017-05-31T11:08:48.793Z,27.20
2017-05-31T11:09:49.503Z,27.32
2017-05-31T11:10:50.466Z,27.39
2017-05-31T11:11:51.176Z,27.47
2017-05-31T11:12:51.883Z,27.49
2017-05-31T11:13:52.595Z,27.49
2017-05-31T11:14:53.305Z,27.39
2017-05-31T11:15:54.267Z,27.49
2017-05-31T11:16:54.976Z,27.39
2017-05-31T11:17:55.692Z,27.21
2017-05-31T11:18:56.411Z,27.12
2017-05-31T11:19:57.122Z,27.29
2017-05-31T11:20:58.034Z,27.45
2017-05-31T11:21:58.747Z,27.51
2017-05-31T11:22:59.458Z,27.42
2017-05-31T11:24:00.171Z,27.17
2017-05-31T11:25:00.882Z,27.25
2017-05-31T11:26:01.853Z,27.40
2017-05-31T11:27:02.561Z,27.20
2017-05-31T11:28:03.269Z,27.15
2017-05-31T11:29:03.979Z,27.35
2017-05-31T11:30:04.691Z,27.68
2017-05-31T11:31:05.604Z,27.92
2017-05-31T11:32:06.314Z,27.77
2017-05-31T11:33:07.031Z,27.83
2017-05-31T11:34:07.742Z,28.00
2017-05-31T11:35:08.451Z,28.08
2017-05-31T11:36:09.411Z,28.19
2017-05-31T11:37:10.118Z,28.32
2017-05-31T11:38:10.846Z,28.08
2017-05-31T11:39:11.557Z,28.48
2017-05-31T11:40:12.270Z,29.26
2017-05-31T11:41:13.183Z,30.08
2017-05-31T11:42:13.895Z,30.92
2017-05-31T11:43:14.606Z,31.49
2017-05-31T11:44:15.320Z,31.59
2017-05-31T11:45:16.033Z,31.66
2017-05-31T11:46:16.996Z,32.09
2017-05-31T11:47:17.713Z,32.59
2017-05-31T11:48:18.424Z,32.75
2017-05-31T11:49:19.137Z,31.85
2017-05-31T11:50:19.849Z,31.15
2017-05-31T11:51:20.761Z,30.55
2017-05-31T11:52:21.479Z,30.05
2017-05-31T11:53:22.196Z,29.79
2017-05-31T11:54:22.911Z,30.85
2017-05-31T11:55:23.623Z,31.84
2017-05-31T11:56:24.597Z,32.49
2017-05-31T11:57:25.312Z,32.77
2017-05-31T11:58:26.022Z,32.75
2017-05-31T11:59:26.746Z,32.49
2017-05-31T12:00:27.469Z,32.87
2017-05-31T12:01:28.381Z,33.47
2017-05-31T12:02:29.097Z,33.50
2017-05-31T12:03:29.806Z,33.77
2017-05-31T12:04:30.519Z,33.64
2017-05-31T12:05:31.238Z,34.08
2017-05-31T12:06:32.209Z,34.30
2017-05-31T12:07:32.924Z,34.45
2017-05-31T12:08:33.648Z,35.17
2017-05-31T12:09:34.365Z,35.55
2017-05-31T12:10:35.080Z,35.66
2017-05-31T12:11:36.047Z,34.01
2017-05-31T12:12:36.762Z,33.07
2017-05-31T12:13:37.481Z,32.14
2017-05-31T12:14:38.203Z,31.92
2017-05-31T12:15:38.916Z,31.76
2017-05-31T12:16:39.882Z,32.29
2017-05-31T12:17:40.598Z,33.50
2017-05-31T12:18:41.321Z,32.78
2017-05-31T12:19:42.036Z,33.62
2017-05-31T12:20:42.753Z,34.05
2017-05-31T12:21:43.717Z,33.31
2017-05-31T12:22:44.431Z,33.64
2017-05-31T12:23:45.143Z,33.94
2017-05-31T12:24:45.863Z,34.02
2017-05-31T12:25:46.576Z,34.60
2017-05-31T12:26:47.546Z,34.67
2017-05-31T12:27:48.271Z,34.27
2017-05-31T12:28:48.987Z,34.83
2017-05-31T12:29:49.706Z,35.61
2017-05-31T12:30:50.430Z,36.05
2017-05-31T12:31:51.397Z,36.01
2017-05-31T12:32:52.111Z,36.59
2017-05-31T12:33:52.825Z,36.99
2017-05-31T12:34:53.543Z,36.61
2017-05-31T12:35:54.264Z,36.64
2017-05-31T12:36:55.179Z,36.54
2017-05-31T12:37:55.895Z,34.97
2017-05-31T12:38:56.619Z,33.84
2017-05-31T12:39:57.333Z,33.36
2017-05-31T12:40:58.049Z,33.01
2017-05-31T12:41:59.014Z,32.40
2017-05-31T12:42:59.728Z,32.41
2017-05-31T12:44:00.446Z,33.47
2017-05-31T12:45:01.158Z,33.95
2017-05-31T12:46:01.871Z,32.96
2017-05-31T12:47:02.785Z,32.70
2017-05-31T12:48:03.498Z,33.32
2017-05-31T12:49:04.238Z,32.75
2017-05-31T12:50:04.954Z,33.81
2017-05-31T12:51:05.682Z,34.02
2017-05-31T12:52:06.595Z,34.43
2017-05-31T12:53:07.324Z,34.96
2017-05-31T12:54:08.034Z,35.23
2017-05-31T12:55:08.757Z,36.14
2017-05-31T12:56:09.473Z,37.06
2017-05-31T12:57:10.438Z,37.39
2017-05-31T12:58:11.159Z,37.59
2017-05-31T12:59:11.874Z,37.89
2017-05-31T13:00:12.589Z,37.89
2017-05-31T13:01:13.307Z,37.92
2017-05-31T13:02:14.275Z,38.04